• Join FlightAware (Why Join?)
  • Login
  • US Flag 
12:16AM EDT


 

Airport Tracker/Info


-or-


 

Live Flight TrackerFlight Track Log ✈ N618JB ✈ 18-Apr-2013 ✈ KLGB - KSMF

Flight Track Log - Related Links

Times and Time Zones

All times are in EDT time to prevent confusion due to time zone crossing. See the N618JB flight status page for this flight to view local times or setup timezone preferences in your user account.

Time Position Orientation Groundspeed Altitude Reporting Facility
EDT Latitude Longitude Course Direction KTS MPH feet Rate Location/Type
01:35PM 33.7867 -118.1153 North 161 185 1,900  Level Los Angeles Center
01:35PM 33.7667 -118.1000 148° Southeast 184 212 2,200 2,580 Climbing Southern California TRACON
01:37PM 33.5427 -118.2983 208° Southwest  Level FlightAware Approximate
01:37PM 33.6842 -118.1414 203° Southwest 226 260 7,300  Level Los Angeles Center
01:38PM 33.4521 -118.3549 208° Southwest  Level FlightAware Approximate
01:38PM 33.6175 -118.2008 217° Southwest 283 326 10,100  Level Los Angeles Center
01:39PM 33.3689 -118.4167 North  Level FlightAware Approximate
01:39PM 33.5436 -118.2672 217° Southwest 322 371 12,200  Level Los Angeles Center
01:40PM 33.4698 -118.4167 North  Level FlightAware Approximate
01:40PM 33.4631 -118.3400 217° Southwest 351 404 14,300  Level Los Angeles Center
01:41PM 33.3931 -118.4375 229° Southwest 377 434 16,900 2,220 Climbing Los Angeles Center
01:42PM 33.4425 -118.5331 302° West 365 420 18,900 2,160 Climbing Los Angeles Center
01:43PM 33.5656 -118.5222 North 372 428 21,500 2,220 Climbing Los Angeles Center
01:44PM 33.6728 -118.4956 12° North 377 434 23,500 1,800 Climbing Los Angeles Center
01:45PM 33.7825 -118.4708 11° North 391 450 25,300 1,440 Climbing Los Angeles Center
01:46PM 33.8947 -118.4539 North 397 457 26,600 1,260 Climbing Los Angeles Center
01:47PM 34.0069 -118.4722 352° North 414 476 28,000 1,200 Climbing Los Angeles Center
01:48PM 34.1119 -118.5183 340° North 406 467 29,200 1,200 Climbing Los Angeles Center
01:49PM 34.2175 -118.5714 337° Northwest 409 471 30,500 1,680 Climbing Los Angeles Center
01:50PM 34.3422 -118.6328 338° Northwest 406 467 32,700 1,560 Climbing Los Angeles Center
01:51PM 34.4442 -118.6836 338° Northwest 398 458 33,800 600 Climbing Los Angeles Center
01:52PM 34.5469 -118.7347 338° Northwest 399 459 34,000 60 Climbing Los Angeles Center
01:53PM 34.6492 -118.7856 338° Northwest 398 458 34,000  Level Los Angeles Center
01:54PM 34.7519 -118.8375 337° Northwest 401 461 34,000  Level Los Angeles Center
01:55PM 34.8564 -118.8894 338° Northwest 402 463 34,000  Level Los Angeles Center
01:56PM 34.9825 -118.9419 341° North 400 460 34,000  Level Los Angeles Center
01:58PM 35.1083 -118.9981 340° North 402 463 34,000  Level Los Angeles Center
01:59PM 35.2136 -119.0456 340° North 405 466 34,000  Level Los Angeles Center
02:00PM 35.3172 -119.0919 340° North 401 461 34,000  Level Los Angeles Center
02:01PM 35.4206 -119.1381 340° North 398 458 34,000  Level Los Angeles Center
02:02PM 35.5444 -119.1944 340° North 397 457 34,000  Level Los Angeles Center
02:03PM 35.6467 -119.2411 340° North 395 455 34,000  Level Los Angeles Center
02:04PM 35.7508 -119.2889 340° North 398 458 34,000  Level Los Angeles Center
02:05PM 35.8519 -119.3356 339° North 401 461 34,000  Level Oakland Center
02:06PM 35.9564 -119.3828 340° North 402 463 34,000  Level Oakland Center
02:07PM 36.0606 -119.4306 340° North 403 464 34,000  Level Oakland Center
02:08PM 36.1647 -119.4797 339° North 404 465 34,000  Level Oakland Center
02:09PM 36.2808 -119.5553 332° Northwest 397 457 34,000  Level Oakland Center
02:10PM 36.3772 -119.6208 331° Northwest 396 456 34,000 -60 Level Oakland Center
02:11PM 36.4722 -119.6864 331° Northwest 392 451 33,900 -540 Descending Oakland Center
02:12PM 36.5669 -119.7519 331° Northwest 388 447 33,000 -960 Descending Oakland Center
02:13PM 36.6581 -119.8161 331° Northwest 379 436 32,000 -1,020 Descending Oakland Center
02:14PM 36.7503 -119.8800 331° Northwest 378 435 31,000 -840 Descending Oakland Center
02:15PM 36.8406 -119.9428 331° Northwest 372 428 30,300 -960 Descending Oakland Center
02:16PM 36.9472 -120.0178 331° Northwest 368 423 29,100 -1,080 Descending Oakland Center
02:17PM 37.0356 -120.0800 331° Northwest 366 421 28,200 -960 Descending Oakland Center
02:18PM 37.1183 -120.1375 331° Northwest 359 413 27,200 -960 Descending Oakland Center
02:19PM 37.2042 -120.1975 331° Northwest 353 406 26,300 -960 Descending Oakland Center
02:20PM 37.2881 -120.2581 330° Northwest 347 399 25,300 -1,020 Descending Oakland Center
02:21PM 37.3753 -120.3106 334° Northwest 351 404 24,300 -1,320 Descending Oakland Center
02:22PM 37.4692 -120.3889 326° Northwest 339 390 22,700 -1,860 Descending Oakland Center
02:23PM 37.5422 -120.4633 321° Northwest 337 388 20,600 -1,860 Descending Oakland Center
02:24PM 37.6133 -120.5369 321° Northwest 332 382 18,900 -1,740 Descending Oakland Center
02:25PM 37.6825 -120.6050 322° Northwest 318 366 17,100 -1,440 Descending Oakland Center
02:26PM 37.7506 -120.6728 322° Northwest 313 360 16,000 -540 Descending Oakland Center
02:27PM 37.8200 -120.7428 321° Northwest 318 366 16,000 -480 Level Oakland Center
02:29PM 37.8869 -120.8117 321° Northwest 314 361 15,100 -1,440 Descending Oakland Center
02:30PM 37.9539 -120.8783 322° Northwest 307 353 13,100 -1,980 Descending Oakland Center
02:31PM 38.0206 -120.9442 322° Northwest 303 349 11,100 -2,160 Descending Oakland Center
02:32PM 38.0931 -121.0181 321° Northwest 283 326 8,700 -1,560 Descending Oakland Center
02:33PM 38.1517 -121.0756 322° Northwest 271 312 8,000 -360 Descending Oakland Center
02:34PM 38.2097 -121.1317 323° Northwest 263 303 8,000  Level Oakland Center
02:34PM 38.2500 -121.1833 315° West 265 305 8,000  Level Northern Cal TRACON
02:35PM 38.3000 -121.2500 314° West 258 297 8,000 -600 Level Northern Cal TRACON
02:36PM 38.3333 -121.3167 303° West 230 265 6,800 -1,440 Descending Northern Cal TRACON
02:38PM 38.4000 -121.4500 303° West 220 253 3,800 -1,320 Descending Northern Cal TRACON
02:39PM 38.4333 -121.5000 310° West 208 239 3,000 -420 Descending Northern Cal TRACON
02:40PM 38.4667 -121.5667 303° West 197 227 3,000  Level Northern Cal TRACON
02:41PM 38.5167 -121.6000 332° Northwest 180 207 3,000 -360 Level Northern Cal TRACON
02:42PM 38.5667 -121.6000 360° North 176 203 2,300 -720 Descending Northern Cal TRACON
02:43PM 38.6000 -121.6000 360° North 135 155 1,600 -720 Descending Northern Cal TRACON
02:44PM 38.6333 -121.6000 360° North 128 147 900 -720 Descending Northern Cal TRACON
02:45PM 38.6833 -121.6000 360° North 133 153 200 -720 Descending Northern Cal TRACON
02:48PM 38.6833 -121.5833 46° Northeast  Level FlightAware Approximate